Great Falls, MT

3:19 AM MDT on August 29, 2014 (GMT -0600)
6S Great Falls | Change Station
CLOSE
Current Station
Personal Weather Station
Location: Great Falls, MT
Elevation: 3510 ft
Nearby Weather Stations

Elev 3510 ft 47.43 °N, 111.32 °W | Updated 2 seconds ago

Clear
Clear
51.3 °F
Feels Like 51.3 °F
N
4.9
Wind Variable Wind from SW
Gusts 4.9 mph

Today
High -- | Low -- °F
--% Chance of Precip.
Yesterday
High -- | Low -- °F
Precip. -- in
6:40 AM 8:11 PM
Waxing Crescent, 13% visible
Pressure 30.02 in
Visibility 10.0 miles
Clouds Clear
Dew Point 48 °F
Humidity 89%
Rainfall 0.00 in
Snow Depth Not available.
UV 0 out of 12
Pollen 8.90 out of 12
Air Quality Not available.
Flu Activity Not available.
METAR KGTF 290853Z 21008KT 10SM CLR 11/09 A3009 RMK AO2 SLP164 T01060094 58013

More Conditions Fewer Conditions

Pressure 30.02 in
Visibility 10.0 miles
Clouds Clear
Dew Point 48 °F
Humidity 89%
Rainfall 0.00 in
Snow Depth Not available.
UV 0 out of 12
Pollen 8.90 out of 12
Air Quality Not available.
Flu Activity Not available.
METAR KGTF 290853Z 21008KT 10SM CLR 11/09 A3009 RMK AO2 SLP164 T01060094 58013

More Conditions Fewer Conditions

10-Day Weather Forecast

Almanac

Astronomy

Aug. 29, 2014 Rise Set
Actual Time 6:40 AM MDT 8:11 PM MDT
Civil Twilight 6:08 AM MDT 8:43 PM MDT
Nautical Twilight 5:29 AM MDT 9:22 PM MDT
Astronomical Twilight 4:46 AM MDT 10:04 PM MDT
Moon 10:52 AM MDT 9:50 PM MDT
Length of Visible Light 14h 35m
Length of Day
13h 31m
Tomorrow will be 3m 17s shorter.
Waxing Crescent, 13% of the Moon is Illuminated
Today
Waxing Crescent
Sep 2
First Quarter
Sep 8
Full
Sep 15
Last Quarter
Sep 24
New

Today's Extremes

State Highs State Lows

Community

WunderPhotos

Upload Photos

1,748,203 photos uploaded!

Nearby

Snow Depth

Station Depth Elevation
Stringer Creek 0 in 6550 ft
Onion Park 0 in 7410 ft
Deadman Creek 0 in 6450 ft
Spur Park 0 in 8100 ft
Pickfoot Creek 0 in 6650 ft

Earthquake Activity

City Distance Mag. Time & Date
No recent earthquake activity has been reported nearby.
Minimum magnitude displayed is 2.5.

Coastal Water Temperatures

Place Temperature
No Stations Reporting

Nearby Weather Stations